sensor_id;sensor_type;location;lat;lon;timestamp;pressure;altitude;pressure_sealevel;temperature;humidity
37298;BME280;30517;51.932;4.278;2023-07-13T00:02:00;101355.13;;;23.13;43.83
37298;BME280;30517;51.932;4.278;2023-07-13T00:04:41;101354.97;;;23.16;43.75
37298;BME280;30517;51.932;4.278;2023-07-13T00:07:22;101352.66;;;23.09;43.82
37298;BME280;30517;51.932;4.278;2023-07-13T00:10:04;101364.88;;;23.16;43.96
37298;BME280;30517;51.932;4.278;2023-07-13T00:12:45;101366.13;;;23.09;43.63
37298;BME280;30517;51.932;4.278;2023-07-13T00:15:26;101354.03;;;22.99;44.07
37298;BME280;30517;51.932;4.278;2023-07-13T00:18:10;101383.66;;;23.17;44.16
37298;BME280;30517;51.932;4.278;2023-07-13T00:20:51;101366.38;;;23.03;44.21
37298;BME280;30517;51.932;4.278;2023-07-13T00:23:36;101382.97;;;23.12;44.03
37298;BME280;30517;51.932;4.278;2023-07-13T00:26:17;101343.44;;;22.94;43.98
37298;BME280;30517;51.932;4.278;2023-07-13T00:28:58;101390.53;;;23.04;44.17
37298;BME280;30517;51.932;4.278;2023-07-13T00:31:39;101388.50;;;23.09;43.79
37298;BME280;30517;51.932;4.278;2023-07-13T00:34:20;101362.31;;;22.92;44.09
37298;BME280;30517;51.932;4.278;2023-07-13T00:37:01;101398.50;;;23.06;43.94
37298;BME280;30517;51.932;4.278;2023-07-13T00:39:42;101381.50;;;23.05;43.82
37298;BME280;30517;51.932;4.278;2023-07-13T00:42:23;101364.78;;;22.99;43.81
37298;BME280;30517;51.932;4.278;2023-07-13T00:48:10;101383.06;;;22.90;44.21
37298;BME280;30517;51.932;4.278;2023-07-13T00:50:53;101386.31;;;22.99;44.02
37298;BME280;30517;51.932;4.278;2023-07-13T00:53:36;101393.41;;;23.00;44.04
37298;BME280;30517;51.932;4.278;2023-07-13T00:56:17;101344.47;;;22.71;44.21
37298;BME280;30517;51.932;4.278;2023-07-13T00:58:59;101389.38;;;22.89;44.21
37298;BME280;30517;51.932;4.278;2023-07-13T01:01:41;101383.41;;;22.83;44.13
37298;BME280;30517;51.932;4.278;2023-07-13T01:04:24;101330.88;;;22.55;44.10
37298;BME280;30517;51.932;4.278;2023-07-13T01:07:06;101357.28;;;22.66;44.10
37298;BME280;30517;51.932;4.278;2023-07-13T01:09:47;101396.50;;;22.90;44.28
37298;BME280;30517;51.932;4.278;2023-07-13T01:12:28;101387.69;;;22.87;44.29
37298;BME280;30517;51.932;4.278;2023-07-13T01:15:42;101393.28;;;22.82;44.16
37298;BME280;30517;51.932;4.278;2023-07-13T01:18:25;101375.09;;;22.68;44.25
37298;BME280;30517;51.932;4.278;2023-07-13T01:21:07;101398.91;;;22.76;44.05
37298;BME280;30517;51.932;4.278;2023-07-13T01:23:48;101402.75;;;22.70;44.06
37298;BME280;30517;51.932;4.278;2023-07-13T01:26:28;101401.31;;;22.63;44.44
37298;BME280;30517;51.932;4.278;2023-07-13T01:29:09;101393.44;;;22.59;44.39
37298;BME280;30517;51.932;4.278;2023-07-13T01:31:50;101367.88;;;22.48;44.23
37298;BME280;30517;51.932;4.278;2023-07-13T01:34:31;101359.81;;;22.48;44.17
37298;BME280;30517;51.932;4.278;2023-07-13T01:37:15;101408.13;;;22.70;44.20
37298;BME280;30517;51.932;4.278;2023-07-13T01:39:56;101378.44;;;22.53;44.11
37298;BME280;30517;51.932;4.278;2023-07-13T01:42:37;101405.66;;;22.66;44.15
37298;BME280;30517;51.932;4.278;2023-07-13T01:45:17;101392.69;;;22.55;44.26
37298;BME280;30517;51.932;4.278;2023-07-13T01:47:58;101366.53;;;22.38;44.21
37298;BME280;30517;51.932;4.278;2023-07-13T01:50:39;101402.56;;;22.54;44.36
37298;BME280;30517;51.932;4.278;2023-07-13T01:53:20;101408.06;;;22.51;44.57
37298;BME280;30517;51.932;4.278;2023-07-13T01:56:01;101336.97;;;22.16;44.18
37298;BME280;30517;51.932;4.278;2023-07-13T01:58:45;101406.06;;;22.57;44.20
37298;BME280;30517;51.932;4.278;2023-07-13T02:01:26;101408.81;;;22.55;44.02
37298;BME280;30517;51.932;4.278;2023-07-13T02:04:07;101401.31;;;22.41;44.43
37298;BME280;30517;51.932;4.278;2023-07-13T02:06:48;101408.47;;;22.42;44.39
37298;BME280;30517;51.932;4.278;2023-07-13T02:09:29;101421.72;;;22.47;44.34
37298;BME280;30517;51.932;4.278;2023-07-13T02:12:11;101415.72;;;22.40;44.64
37298;BME280;30517;51.932;4.278;2023-07-13T02:14:52;101405.09;;;22.37;44.30
37298;BME280;30517;51.932;4.278;2023-07-13T02:17:34;101402.72;;;22.29;44.35
37298;BME280;30517;51.932;4.278;2023-07-13T02:20:15;101410.63;;;22.34;44.64
37298;BME280;30517;51.932;4.278;2023-07-13T02:22:56;101375.72;;;22.10;44.34
37298;BME280;30517;51.932;4.278;2023-07-13T02:25:37;101370.50;;;22.07;44.38
37298;BME280;30517;51.932;4.278;2023-07-13T02:28:18;101397.31;;;22.31;44.27
37298;BME280;30517;51.932;4.278;2023-07-13T02:31:10;101395.63;;;22.06;44.56
37298;BME280;30517;51.932;4.278;2023-07-13T02:33:51;101368.94;;;22.02;44.69
37298;BME280;30517;51.932;4.278;2023-07-13T02:36:32;101413.66;;;22.25;44.49
37298;BME280;30517;51.932;4.278;2023-07-13T02:39:13;101416.56;;;22.20;44.68
37298;BME280;30517;51.932;4.278;2023-07-13T02:41:54;101401.69;;;22.12;44.55
37298;BME280;30517;51.932;4.278;2023-07-13T02:44:35;101413.88;;;22.20;44.23
37298;BME280;30517;51.932;4.278;2023-07-13T02:47:16;101413.00;;;22.20;44.59
37298;BME280;30517;51.932;4.278;2023-07-13T02:49:57;101424.84;;;22.14;44.73
37298;BME280;30517;51.932;4.278;2023-07-13T02:52:38;101416.13;;;22.09;44.95
37298;BME280;30517;51.932;4.278;2023-07-13T02:55:18;101410.63;;;22.12;44.77
37298;BME280;30517;51.932;4.278;2023-07-13T02:57:59;101382.94;;;21.88;44.61
37298;BME280;30517;51.932;4.278;2023-07-13T03:00:41;101422.50;;;22.06;44.73
37298;BME280;30517;51.932;4.278;2023-07-13T03:03:22;101333.06;;;21.60;44.64
37298;BME280;30517;51.932;4.278;2023-07-13T03:06:04;101411.28;;;21.95;44.69
37298;BME280;30517;51.932;4.278;2023-07-13T03:08:46;101417.59;;;21.94;44.96
37298;BME280;30517;51.932;4.278;2023-07-13T03:11:27;101430.16;;;21.94;45.02
37298;BME280;30517;51.932;4.278;2023-07-13T03:14:08;101426.41;;;21.98;44.82
37298;BME280;30517;51.932;4.278;2023-07-13T03:16:49;101413.34;;;21.88;44.93
37298;BME280;30517;51.932;4.278;2023-07-13T03:19:30;101389.00;;;21.71;45.10
37298;BME280;30517;51.932;4.278;2023-07-13T03:22:11;101423.97;;;21.92;45.00
37298;BME280;30517;51.932;4.278;2023-07-13T03:24:52;101424.78;;;21.94;44.93
37298;BME280;30517;51.932;4.278;2023-07-13T03:27:33;101398.66;;;21.75;45.07
37298;BME280;30517;51.932;4.278;2023-07-13T03:30:13;101402.78;;;21.84;44.87
37298;BME280;30517;51.932;4.278;2023-07-13T03:32:54;101418.72;;;21.88;44.68
37298;BME280;30517;51.932;4.278;2023-07-13T03:35:40;101425.22;;;21.83;45.23
37298;BME280;30517;51.932;4.278;2023-07-13T03:38:21;101397.97;;;21.70;45.18
37298;BME280;30517;51.932;4.278;2023-07-13T03:41:05;101407.91;;;21.68;45.02
37298;BME280;30517;51.932;4.278;2023-07-13T03:43:46;101359.75;;;21.41;45.04
37298;BME280;30517;51.932;4.278;2023-07-13T03:46:30;101385.09;;;21.56;45.33
37298;BME280;30517;51.932;4.278;2023-07-13T03:49:11;101395.84;;;21.56;45.31
37298;BME280;30517;51.932;4.278;2023-07-13T03:51:52;101394.56;;;21.67;44.89
37298;BME280;30517;51.932;4.278;2023-07-13T03:54:33;101384.41;;;21.51;44.79
37298;BME280;30517;51.932;4.278;2023-07-13T03:57:13;101423.22;;;21.66;44.85
37298;BME280;30517;51.932;4.278;2023-07-13T03:59:54;101439.81;;;21.76;45.14
37298;BME280;30517;51.932;4.278;2023-07-13T04:02:35;101453.50;;;21.70;45.26
37298;BME280;30517;51.932;4.278;2023-07-13T04:05:17;101434.44;;;21.76;45.20
37298;BME280;30517;51.932;4.278;2023-07-13T04:07:58;101448.06;;;21.71;44.90
37298;BME280;30517;51.932;4.278;2023-07-13T04:10:39;101425.19;;;21.61;44.94
37298;BME280;30517;51.932;4.278;2023-07-13T04:13:20;101438.31;;;21.69;45.04
37298;BME280;30517;51.932;4.278;2023-07-13T04:16:02;101439.13;;;21.71;45.00
37298;BME280;30517;51.932;4.278;2023-07-13T04:18:43;101443.56;;;21.72;45.04
37298;BME280;30517;51.932;4.278;2023-07-13T04:21:26;101401.69;;;21.44;45.09
37298;BME280;30517;51.932;4.278;2023-07-13T04:24:08;101455.59;;;21.61;45.15
37298;BME280;30517;51.932;4.278;2023-07-13T04:26:49;101406.50;;;21.34;45.17
37298;BME280;30517;51.932;4.278;2023-07-13T04:29:30;101444.97;;;21.58;44.90
37298;BME280;30517;51.932;4.278;2023-07-13T04:32:11;101464.59;;;21.60;45.14
37298;BME280;30517;51.932;4.278;2023-07-13T04:34:51;101462.06;;;21.56;45.22
37298;BME280;30517;51.932;4.278;2023-07-13T04:37:35;101464.75;;;21.56;45.13
37298;BME280;30517;51.932;4.278;2023-07-13T04:40:17;101482.28;;;21.66;45.00
37298;BME280;30517;51.932;4.278;2023-07-13T04:42:58;101448.13;;;21.46;45.14
37298;BME280;30517;51.932;4.278;2023-07-13T04:45:39;101465.75;;;21.53;45.08
37298;BME280;30517;51.932;4.278;2023-07-13T04:48:20;101429.19;;;21.26;45.35
37298;BME280;30517;51.932;4.278;2023-07-13T04:51:01;101461.53;;;21.46;45.04
37298;BME280;30517;51.932;4.278;2023-07-13T04:53:45;101452.75;;;21.42;45.00
37298;BME280;30517;51.932;4.278;2023-07-13T04:56:26;101481.03;;;21.51;45.23
37298;BME280;30517;51.932;4.278;2023-07-13T04:59:07;101470.69;;;21.40;45.10
37298;BME280;30517;51.932;4.278;2023-07-13T05:01:48;101476.03;;;21.42;45.26
37298;BME280;30517;51.932;4.278;2023-07-13T05:04:29;101448.91;;;21.25;45.67
37298;BME280;30517;51.932;4.278;2023-07-13T05:07:09;101476.63;;;21.50;45.21
37298;BME280;30517;51.932;4.278;2023-07-13T05:09:50;101486.63;;;21.45;45.51
37298;BME280;30517;51.932;4.278;2023-07-13T05:12:31;101467.19;;;21.38;45.52
37298;BME280;30517;51.932;4.278;2023-07-13T05:15:12;101466.41;;;21.35;45.47
37298;BME280;30517;51.932;4.278;2023-07-13T05:17:53;101493.72;;;21.48;45.10
37298;BME280;30517;51.932;4.278;2023-07-13T05:20:34;101444.63;;;21.19;45.58
37298;BME280;30517;51.932;4.278;2023-07-13T05:23:15;101458.47;;;21.32;45.30
37298;BME280;30517;51.932;4.278;2023-07-13T05:25:56;101454.38;;;21.21;45.46
37298;BME280;30517;51.932;4.278;2023-07-13T05:28:37;101493.72;;;21.48;45.32
37298;BME280;30517;51.932;4.278;2023-07-13T05:31:18;101465.44;;;21.37;45.21
37298;BME280;30517;51.932;4.278;2023-07-13T05:33:59;101462.25;;;21.26;45.05
37298;BME280;30517;51.932;4.278;2023-07-13T05:36:40;101481.63;;;21.34;45.32
37298;BME280;30517;51.932;4.278;2023-07-13T05:39:21;101504.44;;;21.48;45.32
37298;BME280;30517;51.932;4.278;2023-07-13T05:42:03;101511.50;;;21.50;45.44
37298;BME280;30517;51.932;4.278;2023-07-13T05:44:43;101488.75;;;21.35;45.48
37298;BME280;30517;51.932;4.278;2023-07-13T05:47:24;101520.47;;;21.49;45.38
37298;BME280;30517;51.932;4.278;2023-07-13T05:50:06;101522.34;;;21.47;45.60
37298;BME280;30517;51.932;4.278;2023-07-13T05:52:47;101529.31;;;21.53;45.61
37298;BME280;30517;51.932;4.278;2023-07-13T05:55:28;101528.44;;;21.52;45.69
37298;BME280;30517;51.932;4.278;2023-07-13T05:58:09;101519.56;;;21.50;45.79
37298;BME280;30517;51.932;4.278;2023-07-13T06:00:59;101518.97;;;21.42;45.87
37298;BME280;30517;51.932;4.278;2023-07-13T06:03:41;101526.31;;;21.35;46.09
37298;BME280;30517;51.932;4.278;2023-07-13T06:06:22;101527.94;;;21.41;45.83
37298;BME280;30517;51.932;4.278;2023-07-13T06:09:02;101526.44;;;21.32;45.86
37298;BME280;30517;51.932;4.278;2023-07-13T06:11:43;101540.47;;;21.40;45.80
37298;BME280;30517;51.932;4.278;2023-07-13T06:14:25;101523.91;;;21.28;46.12
37298;BME280;30517;51.932;4.278;2023-07-13T06:17:07;101500.16;;;21.17;46.08
37298;BME280;30517;51.932;4.278;2023-07-13T06:19:48;101552.47;;;21.55;45.52
37298;BME280;30517;51.932;4.278;2023-07-13T06:22:29;101545.81;;;21.42;45.50
37298;BME280;30517;51.932;4.278;2023-07-13T06:25:10;101524.88;;;21.25;46.04
37298;BME280;30517;51.932;4.278;2023-07-13T06:27:51;101555.47;;;21.46;45.99
37298;BME280;30517;51.932;4.278;2023-07-13T06:30:32;101524.34;;;21.42;45.54
37298;BME280;30517;51.932;4.278;2023-07-13T06:33:13;101536.72;;;21.19;46.53
37298;BME280;30517;51.932;4.278;2023-07-13T06:35:54;101551.78;;;21.24;46.63
37298;BME280;30517;51.932;4.278;2023-07-13T06:38:35;101496.31;;;20.99;46.51
37298;BME280;30517;51.932;4.278;2023-07-13T06:41:16;101551.97;;;21.44;46.45
37298;BME280;30517;51.932;4.278;2023-07-13T06:43:57;101526.81;;;21.21;46.42
37298;BME280;30517;51.932;4.278;2023-07-13T06:46:38;101548.63;;;21.37;46.52
37298;BME280;30517;51.932;4.278;2023-07-13T06:49:19;101561.81;;;21.43;46.75
37298;BME280;30517;51.932;4.278;2023-07-13T06:52:00;101543.41;;;21.33;46.48
37298;BME280;30517;51.932;4.278;2023-07-13T06:54:41;101573.69;;;21.36;47.59
37298;BME280;30517;51.932;4.278;2023-07-13T06:57:22;101574.09;;;21.26;46.96
37298;BME280;30517;51.932;4.278;2023-07-13T07:00:03;101582.75;;;21.34;47.38
37298;BME280;30517;51.932;4.278;2023-07-13T07:02:46;101584.56;;;21.33;47.32
37298;BME280;30517;51.932;4.278;2023-07-13T07:05:27;101581.19;;;21.27;48.02
37298;BME280;30517;51.932;4.278;2023-07-13T07:08:08;101537.88;;;21.12;47.00
37298;BME280;30517;51.932;4.278;2023-07-13T07:10:49;101587.69;;;21.46;47.00
37298;BME280;30517;51.932;4.278;2023-07-13T07:13:34;101559.38;;;21.36;46.93
37298;BME280;30517;51.932;4.278;2023-07-13T07:16:15;101556.03;;;21.31;47.01
37298;BME280;30517;51.932;4.278;2023-07-13T07:18:57;101595.63;;;21.49;46.89
37298;BME280;30517;51.932;4.278;2023-07-13T07:21:38;101596.69;;;21.45;47.34
37298;BME280;30517;51.932;4.278;2023-07-13T07:24:18;101585.97;;;21.43;47.46
37298;BME280;30517;51.932;4.278;2023-07-13T07:26:59;101599.25;;;21.48;47.35
37298;BME280;30517;51.932;4.278;2023-07-13T07:29:40;101552.78;;;21.21;47.28
37298;BME280;30517;51.932;4.278;2023-07-13T07:32:21;101591.31;;;21.45;47.64
37298;BME280;30517;51.932;4.278;2023-07-13T07:35:05;101534.25;;;21.13;47.47
37298;BME280;30517;51.932;4.278;2023-07-13T07:37:47;101607.84;;;21.58;47.47
37298;BME280;30517;51.932;4.278;2023-07-13T07:40:28;101604.38;;;21.54;47.75
37298;BME280;30517;51.932;4.278;2023-07-13T07:43:10;101606.09;;;21.57;47.66
37298;BME280;30517;51.932;4.278;2023-07-13T07:45:51;101582.19;;;21.49;47.41
37298;BME280;30517;51.932;4.278;2023-07-13T07:48:32;101601.50;;;21.60;47.50
37298;BME280;30517;51.932;4.278;2023-07-13T07:51:13;101611.25;;;21.63;47.37
37298;BME280;30517;51.932;4.278;2023-07-13T07:53:54;101582.31;;;21.46;47.63
37298;BME280;30517;51.932;4.278;2023-07-13T07:56:35;101608.47;;;21.66;47.62
37298;BME280;30517;51.932;4.278;2023-07-13T07:59:15;101597.84;;;21.63;47.48
37298;BME280;30517;51.932;4.278;2023-07-13T08:01:56;101606.88;;;21.60;47.71
37298;BME280;30517;51.932;4.278;2023-07-13T08:04:37;101617.16;;;21.73;47.63
37298;BME280;30517;51.932;4.278;2023-07-13T08:07:18;101587.56;;;21.49;47.64
37298;BME280;30517;51.932;4.278;2023-07-13T08:09:59;101606.75;;;21.87;47.00
37298;BME280;30517;51.932;4.278;2023-07-13T08:12:40;101619.50;;;21.82;47.37
37298;BME280;30517;51.932;4.278;2023-07-13T08:15:21;101618.81;;;21.77;47.50
37298;BME280;30517;51.932;4.278;2023-07-13T08:18:02;101620.44;;;21.81;47.38
37298;BME280;30517;51.932;4.278;2023-07-13T08:20:43;101594.13;;;21.65;47.65
37298;BME280;30517;51.932;4.278;2023-07-13T08:23:25;101626.88;;;22.00;46.68
37298;BME280;30517;51.932;4.278;2023-07-13T08:26:06;101606.13;;;21.80;47.46
37298;BME280;30517;51.932;4.278;2023-07-13T08:28:47;101619.88;;;21.96;47.01
37298;BME280;30517;51.932;4.278;2023-07-13T08:31:28;101595.16;;;21.86;46.97
37298;BME280;30517;51.932;4.278;2023-07-13T08:34:09;101625.38;;;21.93;47.31
37298;BME280;30517;51.932;4.278;2023-07-13T08:36:50;101605.72;;;21.91;46.88
37298;BME280;30517;51.932;4.278;2023-07-13T08:39:31;101631.44;;;21.98;47.50
37298;BME280;30517;51.932;4.278;2023-07-13T08:45:36;101625.66;;;22.09;46.55
37298;BME280;30517;51.932;4.278;2023-07-13T08:48:36;101609.94;;;21.98;46.28
37298;BME280;30517;51.932;4.278;2023-07-13T08:51:48;101638.00;;;22.15;46.77
37298;BME280;30517;51.932;4.278;2023-07-13T08:54:39;101638.16;;;22.10;47.01
37298;BME280;30517;51.932;4.278;2023-07-13T08:57:33;101637.81;;;22.19;46.85
37298;BME280;30517;51.932;4.278;2023-07-13T09:00:15;101655.03;;;22.14;47.30
37298;BME280;30517;51.932;4.278;2023-07-13T09:02:58;101641.59;;;22.14;46.75
37298;BME280;30517;51.932;4.278;2023-07-13T09:05:41;101653.66;;;22.27;46.50
37298;BME280;30517;51.932;4.278;2023-07-13T09:17:19;101653.50;;;22.31;46.77
37298;BME280;30517;51.932;4.278;2023-07-13T09:20:35;101649.94;;;22.31;46.63
37298;BME280;30517;51.932;4.278;2023-07-13T09:23:20;101645.59;;;22.27;46.72
37298;BME280;30517;51.932;4.278;2023-07-13T09:26:22;101648.13;;;22.31;47.11
37298;BME280;30517;51.932;4.278;2023-07-13T09:29:12;101637.41;;;22.30;46.46
37298;BME280;30517;51.932;4.278;2023-07-13T09:31:56;101658.63;;;22.38;46.44
37298;BME280;30517;51.932;4.278;2023-07-13T09:34:38;101661.66;;;22.28;47.16
37298;BME280;30517;51.932;4.278;2023-07-13T09:37:28;101663.69;;;22.22;46.72
37298;BME280;30517;51.932;4.278;2023-07-13T09:40:17;101647.78;;;22.16;46.64
37298;BME280;30517;51.932;4.278;2023-07-13T09:43:03;101664.25;;;22.31;46.56
37298;BME280;30517;51.932;4.278;2023-07-13T09:45:46;101675.84;;;22.32;46.77
37298;BME280;30517;51.932;4.278;2023-07-13T09:48:36;101663.59;;;22.25;46.74
37298;BME280;30517;51.932;4.278;2023-07-13T09:51:17;101675.63;;;22.38;46.31
37298;BME280;30517;51.932;4.278;2023-07-13T09:53:58;101683.06;;;22.31;46.68
37298;BME280;30517;51.932;4.278;2023-07-13T09:56:38;101680.19;;;22.36;46.75
37298;BME280;30517;51.932;4.278;2023-07-13T09:59:39;101694.63;;;22.34;46.75
37298;BME280;30517;51.932;4.278;2023-07-13T10:02:38;101661.97;;;22.21;47.17
37298;BME280;30517;51.932;4.278;2023-07-13T10:05:19;101691.88;;;22.35;46.91
37298;BME280;30517;51.932;4.278;2023-07-13T10:08:02;101683.06;;;22.31;46.87
37298;BME280;30517;51.932;4.278;2023-07-13T10:10:44;101698.09;;;22.36;46.89
37298;BME280;30517;51.932;4.278;2023-07-13T10:13:33;101678.16;;;22.18;46.90
37298;BME280;30517;51.932;4.278;2023-07-13T10:16:17;101675.47;;;22.18;47.00
37298;BME280;30517;51.932;4.278;2023-07-13T10:19:00;101706.13;;;22.37;46.82
37298;BME280;30517;51.932;4.278;2023-07-13T10:21:52;101687.09;;;22.20;46.76
37298;BME280;30517;51.932;4.278;2023-07-13T10:24:36;101685.28;;;22.20;46.88
37298;BME280;30517;51.932;4.278;2023-07-13T10:27:41;101713.44;;;22.34;47.00
37298;BME280;30517;51.932;4.278;2023-07-13T10:30:27;101717.63;;;22.41;46.79
37298;BME280;30517;51.932;4.278;2023-07-13T10:33:11;101731.94;;;22.41;46.81
37298;BME280;30517;51.932;4.278;2023-07-13T10:36:00;101718.50;;;22.41;46.84
37298;BME280;30517;51.932;4.278;2023-07-13T10:38:44;101721.91;;;22.46;46.81
37298;BME280;30517;51.932;4.278;2023-07-13T10:41:30;101722.00;;;22.43;46.84
37298;BME280;30517;51.932;4.278;2023-07-13T10:44:28;101703.50;;;22.36;46.93
37298;BME280;30517;51.932;4.278;2023-07-13T10:47:15;101715.94;;;22.38;46.78
37298;BME280;30517;51.932;4.278;2023-07-13T10:49:58;101668.56;;;22.10;46.76
37298;BME280;30517;51.932;4.278;2023-07-13T11:01:16;101745.06;;;22.50;46.47
37298;BME280;30517;51.932;4.278;2023-07-13T11:04:03;101663.16;;;22.12;46.48
37298;BME280;30517;51.932;4.278;2023-07-13T11:06:47;101735.00;;;22.56;46.05
37298;BME280;30517;51.932;4.278;2023-07-13T11:09:38;101741.09;;;22.61;46.34
37298;BME280;30517;51.932;4.278;2023-07-13T11:15:10;101752.47;;;22.67;46.21
37298;BME280;30517;51.932;4.278;2023-07-13T11:17:54;101738.09;;;22.68;46.16
37298;BME280;30517;51.932;4.278;2023-07-13T11:20:40;101736.09;;;22.73;45.94
37298;BME280;30517;51.932;4.278;2023-07-13T11:23:28;101737.03;;;22.72;46.06
37298;BME280;30517;51.932;4.278;2023-07-13T11:32:30;101738.47;;;22.81;45.74
37298;BME280;30517;51.932;4.278;2023-07-13T11:35:22;101741.25;;;22.80;46.02
37298;BME280;30517;51.932;4.278;2023-07-13T11:38:13;101745.56;;;22.84;46.05
37298;BME280;30517;51.932;4.278;2023-07-13T11:40:55;101742.81;;;22.85;46.12
37298;BME280;30517;51.932;4.278;2023-07-13T11:43:38;101739.06;;;22.89;46.10
37298;BME280;30517;51.932;4.278;2023-07-13T11:46:20;101746.91;;;22.95;45.92
37298;BME280;30517;51.932;4.278;2023-07-13T11:49:05;101731.25;;;22.83;45.88
37298;BME280;30517;51.932;4.278;2023-07-13T11:51:47;101746.91;;;22.95;45.99
37298;BME280;30517;51.932;4.278;2023-07-13T11:54:47;101747.69;;;22.99;46.05
37298;BME280;30517;51.932;4.278;2023-07-13T11:57:33;101745.75;;;23.03;45.71
37298;BME280;30517;51.932;4.278;2023-07-13T12:00:25;101712.53;;;22.80;45.92
37298;BME280;30517;51.932;4.278;2023-07-13T12:03:06;101736.25;;;22.92;45.99
37298;BME280;30517;51.932;4.278;2023-07-13T12:06:02;101742.75;;;23.10;45.85
37298;BME280;30517;51.932;4.278;2023-07-13T12:08:43;101738.31;;;23.09;45.85
37298;BME280;30517;51.932;4.278;2023-07-13T12:11:24;101723.38;;;23.01;45.99
37298;BME280;30517;51.932;4.278;2023-07-13T12:14:05;101723.16;;;23.07;46.11
37298;BME280;30517;51.932;4.278;2023-07-13T12:16:46;101740.34;;;23.25;45.91
37298;BME280;30517;51.932;4.278;2023-07-13T12:19:28;101729.81;;;23.20;45.73
37298;BME280;30517;51.932;4.278;2023-07-13T12:22:12;101734.66;;;23.32;45.87
37298;BME280;30517;51.932;4.278;2023-07-13T12:24:55;101709.19;;;23.19;45.94
37298;BME280;30517;51.932;4.278;2023-07-13T12:27:36;101737.00;;;23.41;45.59
37298;BME280;30517;51.932;4.278;2023-07-13T12:30:29;101734.47;;;23.37;45.61
37298;BME280;30517;51.932;4.278;2023-07-13T12:33:12;101744.81;;;23.48;45.74
37298;BME280;30517;51.932;4.278;2023-07-13T12:35:54;101691.13;;;23.23;45.42
37298;BME280;30517;51.932;4.278;2023-07-13T12:38:35;101715.19;;;23.48;45.34
37298;BME280;30517;51.932;4.278;2023-07-13T12:41:16;101747.03;;;23.58;45.32
37298;BME280;30517;51.932;4.278;2023-07-13T12:43:59;101723.19;;;23.49;45.12
37298;BME280;30517;51.932;4.278;2023-07-13T12:46:52;101756.66;;;23.64;45.04
37298;BME280;30517;51.932;4.278;2023-07-13T12:49:33;101612.34;;;22.97;45.16
37298;BME280;30517;51.932;4.278;2023-07-13T12:52:20;101745.53;;;23.73;44.88
37298;BME280;30517;51.932;4.278;2023-07-13T12:55:08;101736.69;;;23.70;45.05
37298;BME280;30517;51.932;4.278;2023-07-13T12:57:57;101675.25;;;23.37;45.20
37298;BME280;30517;51.932;4.278;2023-07-13T13:00:38;101742.72;;;23.76;45.11
37298;BME280;30517;51.932;4.278;2023-07-13T13:03:33;101743.00;;;23.91;44.86
37298;BME280;30517;51.932;4.278;2023-07-13T13:08:57;101753.78;;;23.91;44.83
37298;BME280;30517;51.932;4.278;2023-07-13T13:11:38;101751.53;;;24.00;45.16
37298;BME280;30517;51.932;4.278;2023-07-13T13:14:20;101752.19;;;24.05;44.87
37298;BME280;30517;51.932;4.278;2023-07-13T13:17:01;101744.22;;;24.04;44.51
37298;BME280;30517;51.932;4.278;2023-07-13T13:19:42;101746.47;;;24.13;44.58
37298;BME280;30517;51.932;4.278;2023-07-13T13:22:23;101762.59;;;24.15;44.59
37298;BME280;30517;51.932;4.278;2023-07-13T13:25:04;101753.50;;;24.17;44.76
37298;BME280;30517;51.932;4.278;2023-07-13T13:27:45;101754.16;;;24.22;44.61
37298;BME280;30517;51.932;4.278;2023-07-13T13:30:26;101758.56;;;24.25;44.17
37298;BME280;30517;51.932;4.278;2023-07-13T13:33:10;101701.34;;;23.98;44.33
37298;BME280;30517;51.932;4.278;2023-07-13T13:35:52;101766.13;;;24.36;44.30
37298;BME280;30517;51.932;4.278;2023-07-13T13:38:33;101756.16;;;24.38;44.55
37298;BME280;30517;51.932;4.278;2023-07-13T13:41:14;101622.28;;;23.58;44.27
37298;BME280;30517;51.932;4.278;2023-07-13T13:43:55;101776.91;;;24.56;44.08
37298;BME280;30517;51.932;4.278;2023-07-13T13:46:36;101737.06;;;24.42;44.40
37298;BME280;30517;51.932;4.278;2023-07-13T13:49:19;101753.16;;;24.64;44.20
37298;BME280;30517;51.932;4.278;2023-07-13T13:52:01;101710.94;;;24.44;44.03
37298;BME280;30517;51.932;4.278;2023-07-13T13:54:45;101765.63;;;24.86;44.21
37298;BME280;30517;51.932;4.278;2023-07-13T13:57:26;101741.84;;;24.94;44.18
37298;BME280;30517;51.932;4.278;2023-07-13T14:00:11;101715.69;;;24.77;44.05
37298;BME280;30517;51.932;4.278;2023-07-13T14:02:54;101765.56;;;25.06;44.19
37298;BME280;30517;51.932;4.278;2023-07-13T14:05:37;101774.91;;;25.18;44.08
37298;BME280;30517;51.932;4.278;2023-07-13T14:08:21;101784.53;;;25.24;43.71
37298;BME280;30517;51.932;4.278;2023-07-13T14:11:01;101773.44;;;25.30;44.06
37298;BME280;30517;51.932;4.278;2023-07-13T14:13:56;101767.81;;;25.34;44.13
37298;BME280;30517;51.932;4.278;2023-07-13T14:16:38;101740.53;;;25.22;44.32
37298;BME280;30517;51.932;4.278;2023-07-13T14:19:19;101750.91;;;25.31;43.79
37298;BME280;30517;51.932;4.278;2023-07-13T14:22:01;101774.28;;;25.49;43.56
37298;BME280;30517;51.932;4.278;2023-07-13T14:24:41;101771.44;;;25.52;43.57
37298;BME280;30517;51.932;4.278;2023-07-13T14:27:22;101779.38;;;25.55;43.71
37298;BME280;30517;51.932;4.278;2023-07-13T14:30:12;101755.50;;;25.46;43.72
37298;BME280;30517;51.932;4.278;2023-07-13T14:32:53;101775.25;;;25.66;43.84
37298;BME280;30517;51.932;4.278;2023-07-13T14:35:33;101785.97;;;25.67;43.69
37298;BME280;30517;51.932;4.278;2023-07-13T14:38:19;101763.66;;;25.64;43.85
37298;BME280;30517;51.932;4.278;2023-07-13T14:41:00;101771.38;;;25.71;43.48
37298;BME280;30517;51.932;4.278;2023-07-13T14:43:41;101777.25;;;25.79;43.43
37298;BME280;30517;51.932;4.278;2023-07-13T14:46:29;101644.00;;;25.08;43.74
37298;BME280;30517;51.932;4.278;2023-07-13T14:52:11;101769.09;;;25.98;43.61